createdAt,value
2023-03-25T00:04:37.598Z,1001.2
2023-03-25T00:09:37.500Z,1001.1
2023-03-25T00:14:37.378Z,1001.3
2023-03-25T00:19:37.305Z,1001.3
2023-03-25T00:24:37.926Z,1001.4
2023-03-25T00:29:38.889Z,1001.5
2023-03-25T00:34:36.919Z,1001.4
2023-03-25T00:39:36.797Z,1001.4
2023-03-25T00:44:36.667Z,1001.4
2023-03-25T00:49:36.628Z,1001.4
2023-03-25T00:54:36.455Z,1001.3
2023-03-25T00:59:36.356Z,1001.4
2023-03-25T01:04:36.209Z,1001.3
2023-03-25T01:09:38.135Z,1001.3
2023-03-25T01:14:35.967Z,1001.3
2023-03-25T01:19:35.907Z,1001.3
2023-03-25T01:24:35.781Z,1001.2
2023-03-25T01:29:37.674Z,1001.2
2023-03-25T01:34:35.588Z,1001.4
2023-03-25T01:39:35.545Z,1001.4
2023-03-25T01:49:37.778Z,1001.4
2023-03-25T01:54:35.144Z,1001.4
2023-03-25T01:59:35.043Z,1001.5
2023-03-25T02:04:34.990Z,1001.5
2023-03-25T02:09:34.845Z,1001.4
2023-03-25T02:14:34.734Z,1001.5
2023-03-25T02:19:34.596Z,1001.6
2023-03-25T02:24:34.474Z,1001.6
2023-03-25T02:29:34.421Z,1001.5
2023-03-25T02:34:34.277Z,1001.6
2023-03-25T02:39:34.662Z,1001.6
2023-03-25T02:49:33.922Z,1001.7
2023-03-25T02:54:33.791Z,1001.8
2023-03-25T02:59:33.669Z,1001.8
2023-03-25T03:04:33.598Z,1001.8
2023-03-25T03:09:33.378Z,1001.8
2023-03-25T03:14:33.228Z,1001.7
2023-03-25T03:19:33.119Z,1001.8
2023-03-25T03:24:33.014Z,1001.9
2023-03-25T03:29:32.928Z,1001.8
2023-03-25T03:34:32.806Z,1001.9
2023-03-25T03:44:34.628Z,1002.1
2023-03-25T03:49:32.592Z,1002.1
2023-03-25T03:54:32.453Z,1002.3
2023-03-25T03:59:34.898Z,1002.3
2023-03-25T04:04:32.342Z,1002.5
2023-03-25T04:09:32.277Z,1002.4
2023-03-25T04:14:32.209Z,1002.4
2023-03-25T04:19:32.082Z,1002.3
2023-03-25T04:24:31.981Z,1002.4
2023-03-25T04:34:31.810Z,1002.4
2023-03-25T04:39:31.764Z,1002.5
2023-03-25T04:44:31.629Z,1002.6
2023-03-25T04:49:31.583Z,1002.7
2023-03-25T04:54:31.456Z,1002.6
2023-03-25T04:59:31.379Z,1002.6
2023-03-25T05:09:31.164Z,1002.9
2023-03-25T05:14:31.072Z,1002.9
2023-03-25T05:19:31.024Z,1002.9
2023-03-25T05:24:30.895Z,1003.0
2023-03-25T05:29:30.827Z,1003.1
2023-03-25T05:34:30.772Z,1003.1
2023-03-25T05:39:30.704Z,1003.1
2023-03-25T05:44:30.620Z,1003.1
2023-03-25T05:49:30.561Z,1003.2
2023-03-25T05:54:30.477Z,1003.1
2023-03-25T05:59:30.414Z,1003.2
2023-03-25T06:04:30.333Z,1003.2
2023-03-25T06:09:30.333Z,1003.3
2023-03-25T06:14:30.130Z,1003.3
2023-03-25T06:24:29.962Z,1003.3
2023-03-25T06:29:29.846Z,1003.4
2023-03-25T06:34:29.732Z,1003.4
2023-03-25T06:39:29.672Z,1003.7
2023-03-25T06:44:29.607Z,1003.7
2023-03-25T06:49:29.555Z,1003.8
2023-03-25T06:54:29.448Z,1003.8
2023-03-25T06:59:29.383Z,1003.8
2023-03-25T07:04:29.286Z,1003.9
2023-03-25T07:14:31.111Z,1003.9
2023-03-25T07:19:29.074Z,1004.0
2023-03-25T07:29:28.940Z,1004.2
2023-03-25T07:34:28.866Z,1004.3
2023-03-25T07:39:28.847Z,1004.3
2023-03-25T07:44:28.856Z,1004.4
2023-03-25T07:54:28.676Z,1004.6
2023-03-25T07:59:29.380Z,1004.4
2023-03-25T08:04:30.587Z,1004.8
2023-03-25T08:09:28.522Z,1004.8
2023-03-25T08:14:28.513Z,1004.9
2023-03-25T08:19:28.480Z,1005.1
2023-03-25T08:24:28.460Z,1005.0
2023-03-25T08:29:28.468Z,1005.1
2023-03-25T08:34:29.875Z,1005.2
2023-03-25T08:39:28.498Z,1005.2
2023-03-25T08:44:28.467Z,1005.3
2023-03-25T08:49:28.522Z,1005.5
2023-03-25T08:54:28.559Z,1005.5
2023-03-25T08:59:28.667Z,1005.5
2023-03-25T09:04:28.643Z,1005.5
2023-03-25T09:09:28.685Z,1005.6
2023-03-25T09:14:28.745Z,1005.7
2023-03-25T09:19:28.801Z,1005.7
2023-03-25T09:24:28.849Z,1005.8
2023-03-25T09:29:28.915Z,1005.8
2023-03-25T09:34:28.984Z,1005.9
2023-03-25T09:39:29.067Z,1005.9
2023-03-25T09:44:29.076Z,1005.9
2023-03-25T09:49:29.178Z,1006.1
2023-03-25T09:54:29.255Z,1006.1
2023-03-25T09:59:29.284Z,1006.2
2023-03-25T10:04:29.353Z,1006.3
2023-03-25T10:09:29.431Z,1006.3
2023-03-25T10:14:29.526Z,1006.4
2023-03-25T10:19:29.605Z,1006.5
2023-03-25T10:24:29.737Z,1006.5
2023-03-25T10:29:29.800Z,1006.7
2023-03-25T10:34:29.877Z,1006.6
2023-03-25T10:39:29.973Z,1006.6
2023-03-25T10:44:31.084Z,1006.5
2023-03-25T10:49:30.133Z,1006.7
2023-03-25T10:54:30.249Z,1006.7
2023-03-25T10:59:30.356Z,1006.8
2023-03-25T11:04:30.467Z,1006.8
2023-03-25T11:09:30.875Z,1006.9
2023-03-25T11:14:30.752Z,1007.0
2023-03-25T11:19:30.918Z,1006.9
2023-03-25T11:24:31.085Z,1006.9
2023-03-25T11:29:31.212Z,1006.9
2023-03-25T11:34:31.441Z,1006.9
2023-03-25T11:44:31.699Z,1006.8
2023-03-25T11:49:31.841Z,1006.9
2023-03-25T11:54:32.050Z,1006.8
2023-03-25T11:59:32.126Z,1006.7
2023-03-25T12:04:32.333Z,1006.9
2023-03-25T12:09:32.548Z,1006.9
2023-03-25T12:19:32.950Z,1006.9
2023-03-25T12:24:33.177Z,1007.0
2023-03-25T12:29:33.447Z,1006.9
2023-03-25T12:34:33.617Z,1006.9
2023-03-25T12:39:42.786Z,1007.0
2023-03-25T12:44:33.997Z,1007.0
2023-03-25T12:49:34.191Z,1007.0
2023-03-25T12:54:34.379Z,1007.0
2023-03-25T12:59:34.573Z,1007.0
2023-03-25T13:04:34.785Z,1007.1
2023-03-25T13:09:34.942Z,1007.1
2023-03-25T13:14:35.224Z,1007.2
2023-03-25T13:19:35.453Z,1007.3
2023-03-25T13:24:35.658Z,1007.4
2023-03-25T13:29:35.886Z,1007.3
2023-03-25T13:34:36.049Z,1007.4
2023-03-25T13:39:36.253Z,1007.4
2023-03-25T13:44:36.500Z,1007.4
2023-03-25T13:49:36.715Z,1007.5
2023-03-25T13:54:36.913Z,1007.5
2023-03-25T13:59:37.126Z,1007.5
2023-03-25T14:04:37.338Z,1007.6
2023-03-25T14:09:37.552Z,1007.6
2023-03-25T14:14:37.793Z,1007.6
2023-03-25T14:19:38.054Z,1007.5
2023-03-25T14:24:38.218Z,1007.6
2023-03-25T14:29:38.418Z,1007.6
2023-03-25T14:34:40.454Z,1007.6
2023-03-25T14:39:38.965Z,1007.6
2023-03-25T14:44:39.139Z,1007.6
2023-03-25T14:49:39.325Z,1007.6
2023-03-25T14:54:39.587Z,1007.7
2023-03-25T14:59:39.813Z,1007.6
2023-03-25T15:04:39.918Z,1007.7
2023-03-25T15:09:40.125Z,1007.7
2023-03-25T15:14:40.238Z,1007.9
2023-03-25T15:19:40.384Z,1007.8
2023-03-25T15:24:40.542Z,1007.8
2023-03-25T15:29:40.610Z,1007.7
2023-03-25T15:39:40.835Z,1007.8
2023-03-25T15:44:40.964Z,1007.7
2023-03-25T15:49:43.591Z,1007.7
2023-03-25T15:54:41.172Z,1007.6
2023-03-25T15:59:41.299Z,1007.6
2023-03-25T16:04:41.421Z,1007.7
2023-03-25T16:09:41.509Z,1007.6
2023-03-25T16:14:41.628Z,1007.5
2023-03-25T16:19:41.784Z,1007.6
2023-03-25T16:24:41.926Z,1007.6
2023-03-25T16:29:42.091Z,1007.6
2023-03-25T16:39:42.429Z,1007.4
2023-03-25T16:44:46.625Z,1007.3
2023-03-25T16:49:42.795Z,1007.3
2023-03-25T16:54:42.915Z,1007.2
2023-03-25T16:59:43.082Z,1007.1
2023-03-25T17:04:43.213Z,1007.0
2023-03-25T17:09:43.350Z,1007.0
2023-03-25T17:14:43.503Z,1006.9
2023-03-25T17:19:43.630Z,1006.9
2023-03-25T17:24:47.784Z,1006.9
2023-03-25T17:29:43.916Z,1007.0
2023-03-25T17:34:44.053Z,1007.0
2023-03-25T17:39:44.203Z,1006.9
2023-03-25T17:44:44.365Z,1007.0
2023-03-25T17:54:44.620Z,1007.1
2023-03-25T17:59:48.716Z,1007.3
2023-03-25T18:04:46.573Z,1007.5
2023-03-25T18:09:44.979Z,1007.5
2023-03-25T18:14:45.061Z,1007.5
2023-03-25T18:19:45.185Z,1007.4
2023-03-25T18:24:45.252Z,1007.3
2023-03-25T18:29:45.388Z,1007.3
2023-03-25T18:34:45.409Z,1007.2
2023-03-25T18:39:45.490Z,1007.0
2023-03-25T18:44:45.561Z,1007.2
2023-03-25T18:49:45.630Z,1007.0
2023-03-25T18:54:45.732Z,1006.9
2023-03-25T18:59:45.777Z,1006.9
2023-03-25T19:04:59.734Z,1006.9
2023-03-25T19:09:45.900Z,1006.8
2023-03-25T19:14:45.944Z,1006.7
2023-03-25T19:19:46.474Z,1006.7
2023-03-25T19:24:46.013Z,1006.6
2023-03-25T19:29:46.066Z,1006.5
2023-03-25T19:34:46.128Z,1006.4
2023-03-25T19:39:46.189Z,1006.4
2023-03-25T19:44:47.187Z,1006.4
2023-03-25T19:49:46.283Z,1006.3
2023-03-25T19:54:46.336Z,1006.2
2023-03-25T19:59:46.340Z,1006.1
2023-03-25T20:04:46.348Z,1006.2
2023-03-25T20:09:46.389Z,1006.1
2023-03-25T20:14:46.391Z,1006.1
2023-03-25T20:19:46.422Z,1005.9
2023-03-25T20:24:46.487Z,1005.9
2023-03-25T20:29:46.486Z,1005.9
2023-03-25T20:34:46.525Z,1005.9
2023-03-25T20:39:46.572Z,1005.9
2023-03-25T20:44:46.644Z,1005.8
2023-03-25T20:49:46.601Z,1005.7
2023-03-25T20:54:46.658Z,1005.7
2023-03-25T20:59:46.695Z,1005.5
2023-03-25T21:04:46.677Z,1005.5
2023-03-25T21:09:46.764Z,1005.3
2023-03-25T21:14:46.805Z,1005.2
2023-03-25T21:19:46.804Z,1005.1
2023-03-25T21:24:46.827Z,1005.1
2023-03-25T21:29:46.863Z,1005.0
2023-03-25T21:34:46.895Z,1004.9
2023-03-25T21:39:50.197Z,1004.8
2023-03-25T21:44:46.935Z,1004.7
2023-03-25T21:49:47.331Z,1004.6
2023-03-25T21:54:47.017Z,1004.6
2023-03-25T21:59:47.050Z,1004.6
2023-03-25T22:04:47.145Z,1004.5
2023-03-25T22:09:47.126Z,1004.4
2023-03-25T22:14:47.209Z,1004.3
2023-03-25T22:19:47.259Z,1004.2
2023-03-25T22:24:47.295Z,1003.9
2023-03-25T22:29:47.344Z,1004.0
2023-03-25T22:34:47.365Z,1004.0
2023-03-25T22:39:47.397Z,1003.8
2023-03-25T22:44:47.455Z,1003.7
2023-03-25T22:49:47.476Z,1003.5
2023-03-25T22:54:47.562Z,1003.4
2023-03-25T22:59:47.570Z,1003.3
2023-03-25T23:04:49.712Z,1003.2
2023-03-25T23:09:50.185Z,1003.1
2023-03-25T23:14:47.792Z,1003.0
2023-03-25T23:19:47.871Z,1002.8
2023-03-25T23:24:47.942Z,1002.8
2023-03-25T23:29:47.941Z,1002.7
2023-03-25T23:34:48.024Z,1002.6
2023-03-25T23:39:50.598Z,1002.5
2023-03-25T23:44:48.134Z,1002.4
2023-03-25T23:49:48.196Z,1002.3
2023-03-25T23:54:48.183Z,1002.2
2023-03-25T23:59:48.259Z,1002.1
